Terminal Aerodrome Forecast
Issued by NWS

Home | Current Version | Previous Version | Text Only | Print | Product List | Glossary On
Versions: 1 2 3 4 5 6 7 8 9 10 11 12 13 14 15 16 17 18 19 20
000
FTUS44 KLZK 302328
TAFLIT
TAF
KLIT 302328Z 3100/3124 25010G18KT P6SM OVC045
     FM310300 27008KT P6SM BKN050
     FM310800 28005KT P6SM SCT050
     FM311200 VRB05KT P6SM SKC=

USA.gov is the U.S. government's official web portal to all federal, state and local government web resources and services.